createdAt,value
2019-03-15T00:00:33.559Z,5.27
2019-03-15T00:03:01.193Z,6.20
2019-03-15T00:05:28.876Z,5.63
2019-03-15T00:07:56.518Z,5.13
2019-03-15T00:10:24.192Z,5.50
2019-03-15T00:12:51.877Z,7.17
2019-03-15T00:15:19.526Z,5.03
2019-03-15T00:17:47.188Z,4.03
2019-03-15T00:20:14.865Z,5.37
2019-03-15T00:22:42.609Z,5.80
2019-03-15T00:25:10.259Z,7.80
2019-03-15T00:27:37.949Z,5.40
2019-03-15T00:30:06.540Z,4.83
2019-03-15T00:32:35.203Z,6.00
2019-03-15T00:35:02.990Z,7.17
2019-03-15T00:37:30.877Z,8.53
2019-03-15T00:39:58.815Z,7.10
2019-03-15T00:42:26.481Z,9.47
2019-03-15T00:44:54.272Z,6.37
2019-03-15T00:47:22.118Z,5.80
2019-03-15T00:49:49.739Z,6.07
2019-03-15T00:52:17.364Z,6.20
2019-03-15T00:54:45.029Z,5.23
2019-03-15T00:57:12.660Z,7.07
2019-03-15T00:59:40.338Z,3.27
2019-03-15T01:02:08.056Z,3.87
2019-03-15T01:04:35.686Z,8.50
2019-03-15T01:07:03.229Z,6.17
2019-03-15T01:09:30.877Z,6.03
2019-03-15T01:11:58.520Z,6.80
2019-03-15T01:14:26.170Z,6.93
2019-03-15T01:16:53.842Z,5.43
2019-03-15T01:19:21.466Z,5.47
2019-03-15T01:21:49.117Z,6.93
2019-03-15T01:24:16.802Z,7.00
2019-03-15T01:26:45.517Z,7.83
2019-03-15T01:29:13.327Z,5.97
2019-03-15T01:31:40.933Z,6.40
2019-03-15T01:34:08.577Z,7.27
2019-03-15T01:36:36.197Z,5.93
2019-03-15T01:39:05.073Z,5.00
2019-03-15T01:41:32.689Z,6.77
2019-03-15T01:44:00.300Z,6.37
2019-03-15T01:46:28.128Z,7.80
2019-03-15T01:48:55.771Z,5.87
2019-03-15T01:51:23.397Z,6.40
2019-03-15T01:53:51.052Z,7.43
2019-03-15T01:56:18.685Z,10.83
2019-03-15T01:58:46.412Z,9.97
2019-03-15T02:01:14.185Z,5.53
2019-03-15T02:03:41.942Z,7.87
2019-03-15T02:06:09.593Z,8.70
2019-03-15T02:08:37.216Z,3.70
2019-03-15T02:11:05.048Z,7.70
2019-03-15T02:13:32.709Z,9.50
2019-03-15T02:16:00.356Z,6.53
2019-03-15T02:18:28.157Z,6.03
2019-03-15T02:20:56.953Z,6.13
2019-03-15T02:23:24.721Z,6.80
2019-03-15T02:25:53.349Z,9.70
2019-03-15T02:28:21.184Z,10.50
2019-03-15T02:30:48.874Z,9.77
2019-03-15T02:33:16.567Z,7.60
2019-03-15T02:35:44.491Z,6.50
2019-03-15T02:38:12.128Z,6.97
2019-03-15T02:40:40.220Z,9.03
2019-03-15T02:43:07.941Z,7.30
2019-03-15T02:45:35.587Z,7.73
2019-03-15T02:48:03.327Z,6.67
2019-03-15T02:50:30.967Z,9.53
2019-03-15T02:52:58.643Z,12.33
2019-03-15T02:55:26.282Z,7.27
2019-03-15T02:57:53.912Z,6.83
2019-03-15T03:00:21.621Z,12.03
2019-03-15T03:02:49.244Z,8.83
2019-03-15T03:05:16.913Z,7.53
2019-03-15T03:07:44.573Z,9.47
2019-03-15T03:10:12.210Z,6.77
2019-03-15T03:12:39.845Z,12.67
2019-03-15T03:15:07.634Z,7.43
2019-03-15T03:17:35.304Z,7.50
2019-03-15T03:20:03.222Z,7.10
2019-03-15T03:22:31.109Z,7.53
2019-03-15T03:24:58.783Z,6.30
2019-03-15T03:27:26.484Z,5.40
2019-03-15T03:29:54.144Z,6.30
2019-03-15T03:32:21.888Z,9.10
2019-03-15T03:34:49.538Z,6.13
2019-03-15T03:37:17.208Z,7.57
2019-03-15T03:39:44.964Z,8.47
2019-03-15T03:42:12.737Z,4.67
2019-03-15T03:44:42.175Z,8.43
2019-03-15T03:47:09.860Z,8.87
2019-03-15T03:49:37.513Z,7.17
2019-03-15T03:52:06.992Z,6.60
2019-03-15T03:54:34.793Z,7.10
2019-03-15T03:57:02.537Z,8.87
2019-03-15T03:59:30.187Z,7.77
2019-03-15T04:01:57.998Z,7.60
2019-03-15T04:04:26.777Z,7.07
2019-03-15T04:06:55.663Z,6.63
2019-03-15T04:09:25.110Z,6.40
2019-03-15T04:11:55.703Z,7.40
2019-03-15T04:14:24.217Z,6.20
2019-03-15T04:16:53.833Z,9.10
2019-03-15T04:19:24.774Z,7.40
2019-03-15T04:21:52.769Z,6.60
2019-03-15T04:24:20.412Z,10.77
2019-03-15T04:26:48.130Z,8.20
2019-03-15T04:29:16.971Z,8.87
2019-03-15T04:31:44.606Z,6.23
2019-03-15T04:34:12.330Z,7.63
2019-03-15T04:36:40.086Z,10.70
2019-03-15T04:39:07.873Z,6.93
2019-03-15T04:41:37.213Z,8.40
2019-03-15T04:44:06.699Z,8.67
2019-03-15T04:46:34.495Z,10.93
2019-03-15T04:49:02.701Z,9.17
2019-03-15T04:51:30.405Z,8.57
2019-03-15T04:53:58.165Z,12.10
2019-03-15T04:56:26.996Z,10.43
2019-03-15T04:58:54.718Z,14.23
2019-03-15T05:01:22.362Z,9.60
2019-03-15T05:03:50.030Z,11.93
2019-03-15T05:06:17.921Z,10.17
2019-03-15T05:08:45.648Z,10.00
2019-03-15T05:11:13.305Z,8.07
2019-03-15T05:13:40.970Z,11.53
2019-03-15T05:16:08.667Z,12.60
2019-03-15T05:18:38.136Z,12.63
2019-03-15T05:21:05.796Z,13.47
2019-03-15T05:23:33.503Z,12.57
2019-03-15T05:26:01.214Z,13.40
2019-03-15T05:28:28.844Z,14.20
2019-03-15T05:30:56.505Z,10.50
2019-03-15T05:33:24.266Z,9.73
2019-03-15T05:35:51.950Z,8.80
2019-03-15T05:38:19.666Z,14.27
2019-03-15T05:40:47.336Z,14.03
2019-03-15T05:43:14.981Z,9.53
2019-03-15T05:45:42.640Z,11.43
2019-03-15T05:48:10.355Z,17.87
2019-03-15T05:50:40.689Z,10.87
2019-03-15T05:53:07.573Z,11.30
2019-03-15T05:55:36.314Z,12.17
2019-03-15T05:58:03.969Z,10.67
2019-03-15T06:00:31.637Z,11.30
2019-03-15T06:02:59.324Z,10.67
2019-03-15T06:05:26.929Z,9.03
2019-03-15T06:07:54.613Z,12.70
2019-03-15T06:10:22.289Z,10.97
2019-03-15T06:12:51.818Z,7.70
2019-03-15T06:15:24.202Z,12.40
2019-03-15T06:17:51.878Z,8.00
2019-03-15T06:20:19.930Z,10.37
2019-03-15T06:22:47.584Z,8.43
2019-03-15T06:25:15.266Z,8.13
2019-03-15T06:27:42.908Z,9.90
2019-03-15T06:30:10.629Z,9.03
2019-03-15T06:32:38.309Z,8.87
2019-03-15T06:35:12.328Z,14.83
2019-03-15T06:37:39.996Z,11.47
2019-03-15T06:40:07.721Z,10.00
2019-03-15T06:42:35.416Z,11.57
2019-03-15T06:45:05.296Z,6.97
2019-03-15T06:47:32.963Z,9.13
2019-03-15T06:50:01.371Z,10.07
2019-03-15T06:52:32.834Z,8.77
2019-03-15T06:55:05.103Z,7.13
2019-03-15T06:57:33.117Z,12.83
2019-03-15T07:00:04.416Z,10.57
2019-03-15T07:02:32.793Z,11.13
2019-03-15T07:05:00.746Z,10.83
2019-03-15T07:07:28.382Z,9.40
2019-03-15T07:09:58.413Z,11.63
2019-03-15T07:12:26.365Z,9.00
2019-03-15T07:14:54.053Z,9.90
2019-03-15T07:17:21.682Z,9.40
2019-03-15T07:19:49.401Z,7.60
2019-03-15T07:22:19.822Z,8.53
2019-03-15T07:24:46.650Z,10.60
2019-03-15T07:27:14.304Z,9.33
2019-03-15T07:29:41.978Z,10.87
2019-03-15T07:32:09.614Z,11.90
2019-03-15T07:34:37.369Z,7.23
2019-03-15T07:37:05.040Z,8.53
2019-03-15T07:39:32.767Z,10.00
2019-03-15T07:42:00.626Z,8.37
2019-03-15T07:44:28.364Z,9.67
2019-03-15T07:46:56.107Z,7.63
2019-03-15T07:49:23.743Z,5.50
2019-03-15T07:51:51.405Z,7.87
2019-03-15T07:54:19.105Z,7.83
2019-03-15T07:56:46.782Z,8.53
2019-03-15T07:59:15.549Z,11.27
2019-03-15T08:01:43.201Z,12.07
2019-03-15T08:04:16.990Z,10.80
2019-03-15T08:06:40.485Z,6.97
2019-03-15T08:09:08.151Z,6.67
2019-03-15T08:11:35.982Z,8.47
2019-03-15T08:14:03.670Z,8.20
2019-03-15T08:16:34.345Z,11.53
2019-03-15T08:19:01.134Z,5.73
2019-03-15T08:21:28.750Z,7.30
2019-03-15T08:23:56.440Z,10.47
2019-03-15T08:26:24.089Z,5.97
2019-03-15T08:28:54.833Z,7.83
2019-03-15T08:31:23.392Z,5.93
2019-03-15T08:33:51.590Z,8.00
2019-03-15T08:36:20.470Z,7.10
2019-03-15T08:38:48.349Z,7.70
2019-03-15T08:41:15.974Z,5.20
2019-03-15T08:43:46.069Z,8.53
2019-03-15T08:46:13.251Z,7.40
2019-03-15T08:48:40.990Z,6.90
2019-03-15T08:51:10.794Z,8.17
2019-03-15T08:53:38.902Z,9.43
2019-03-15T08:56:06.682Z,5.00
2019-03-15T08:58:34.340Z,6.27
2019-03-15T09:01:02.069Z,8.97
2019-03-15T09:03:29.699Z,7.97
2019-03-15T09:05:57.314Z,10.00
2019-03-15T09:08:24.991Z,10.73
2019-03-15T09:10:52.645Z,7.27
2019-03-15T09:13:20.329Z,6.17
2019-03-15T09:15:48.198Z,7.73
2019-03-15T09:18:15.821Z,6.83
2019-03-15T09:20:43.490Z,8.37
2019-03-15T09:23:11.122Z,8.40
2019-03-15T09:25:38.841Z,6.90
2019-03-15T09:28:06.469Z,3.63
2019-03-15T09:30:35.123Z,4.67
2019-03-15T09:33:03.289Z,4.53
2019-03-15T09:35:31.203Z,5.30
2019-03-15T09:37:58.924Z,3.23
2019-03-15T09:40:26.745Z,5.23
2019-03-15T09:42:54.455Z,5.07
2019-03-15T09:45:22.143Z,4.80
2019-03-15T09:47:49.792Z,4.20
2019-03-15T09:50:26.492Z,3.40
2019-03-15T09:52:47.089Z,2.67
2019-03-15T09:55:15.835Z,3.03
2019-03-15T09:57:43.520Z,4.10
2019-03-15T10:00:13.252Z,2.67
2019-03-15T10:02:40.913Z,2.53
2019-03-15T10:05:11.400Z,3.73
2019-03-15T10:07:39.013Z,2.93
2019-03-15T10:10:13.981Z,2.40
2019-03-15T10:12:39.513Z,4.37
2019-03-15T10:15:08.367Z,2.13
2019-03-15T10:17:36.174Z,2.17
2019-03-15T10:20:05.031Z,2.60
2019-03-15T10:22:32.752Z,4.03
2019-03-15T10:25:00.814Z,3.37
2019-03-15T10:27:29.788Z,1.60
2019-03-15T10:29:57.440Z,4.07
2019-03-15T10:32:25.090Z,2.93
2019-03-15T10:34:52.755Z,2.10
2019-03-15T10:37:20.445Z,2.57
2019-03-15T10:39:48.181Z,1.97
2019-03-15T10:42:15.921Z,2.37
2019-03-15T10:44:43.597Z,2.17
2019-03-15T10:47:11.284Z,1.70
2019-03-15T10:49:39.341Z,1.63
2019-03-15T10:52:07.005Z,1.57
2019-03-15T10:54:34.682Z,2.00
2019-03-15T10:57:02.507Z,1.77
2019-03-15T10:59:30.465Z,3.60
2019-03-15T11:01:58.116Z,1.60
2019-03-15T11:04:25.819Z,2.03
2019-03-15T11:06:53.446Z,2.90
2019-03-15T11:09:21.122Z,2.10
2019-03-15T11:11:48.794Z,2.40
2019-03-15T11:14:16.446Z,2.20
2019-03-15T11:16:44.118Z,2.47
2019-03-15T11:19:11.943Z,2.13
2019-03-15T11:21:39.600Z,1.87
2019-03-15T11:24:07.281Z,1.90
2019-03-15T11:26:36.554Z,2.67
2019-03-15T11:29:04.272Z,2.60
2019-03-15T11:31:31.933Z,2.63
2019-03-15T11:33:59.576Z,2.83
2019-03-15T11:36:27.241Z,3.27
2019-03-15T11:38:54.971Z,2.40
2019-03-15T11:41:22.625Z,1.70
2019-03-15T11:43:50.269Z,2.53
2019-03-15T11:46:18.014Z,4.23
2019-03-15T11:48:45.757Z,3.60
2019-03-15T11:51:13.449Z,2.57
2019-03-15T11:53:41.137Z,3.63
2019-03-15T11:56:08.802Z,3.67
2019-03-15T11:58:36.437Z,3.27
2019-03-15T12:01:04.089Z,2.07
2019-03-15T12:03:31.858Z,3.63
2019-03-15T12:05:59.493Z,2.10
2019-03-15T12:08:27.177Z,2.60
2019-03-15T12:10:54.804Z,2.67
2019-03-15T12:13:22.477Z,2.30
2019-03-15T12:15:50.104Z,3.20
2019-03-15T12:18:17.777Z,4.73
2019-03-15T12:20:45.427Z,4.13
2019-03-15T12:23:13.127Z,3.47
2019-03-15T12:25:40.802Z,3.77
2019-03-15T12:28:08.414Z,3.90
2019-03-15T12:30:37.313Z,3.77
2019-03-15T12:33:04.998Z,3.17
2019-03-15T12:35:32.634Z,3.20
2019-03-15T12:38:00.313Z,5.80
2019-03-15T12:40:28.008Z,2.00
2019-03-15T12:42:55.637Z,4.53
2019-03-15T12:45:23.338Z,3.20
2019-03-15T12:47:51.965Z,2.50
2019-03-15T12:50:19.722Z,3.87
2019-03-15T12:52:48.515Z,5.53
2019-03-15T12:55:16.710Z,3.23
2019-03-15T12:57:44.344Z,2.70
2019-03-15T13:00:13.069Z,3.90
2019-03-15T13:02:41.045Z,6.93
2019-03-15T13:05:08.733Z,2.40
2019-03-15T13:07:36.409Z,4.50
2019-03-15T13:10:05.249Z,3.07
2019-03-15T13:12:33.085Z,4.03
2019-03-15T13:15:00.791Z,4.27
2019-03-15T13:17:28.478Z,3.93
2019-03-15T13:19:56.169Z,4.10
2019-03-15T13:22:23.865Z,5.43
2019-03-15T13:24:51.585Z,5.53
2019-03-15T13:27:19.327Z,5.13
2019-03-15T13:29:47.018Z,5.87
2019-03-15T13:32:14.665Z,6.53
2019-03-15T13:34:42.369Z,5.30
2019-03-15T13:37:10.022Z,4.37
2019-03-15T13:39:37.729Z,3.53
2019-03-15T13:42:05.416Z,6.17
2019-03-15T13:44:33.062Z,3.07
2019-03-15T13:47:00.696Z,3.87
2019-03-15T13:49:28.426Z,3.33
2019-03-15T13:51:56.096Z,6.70
2019-03-15T13:54:23.761Z,6.87
2019-03-15T13:56:51.616Z,3.27
2019-03-15T13:59:19.310Z,4.53
2019-03-15T14:01:46.968Z,4.63
2019-03-15T14:04:14.620Z,3.43
2019-03-15T14:06:42.340Z,3.83
2019-03-15T14:09:10.005Z,3.17
2019-03-15T14:11:37.653Z,6.30
2019-03-15T14:14:05.301Z,8.17
2019-03-15T14:16:32.997Z,3.93
2019-03-15T14:19:00.646Z,2.73
2019-03-15T14:21:28.322Z,3.10
2019-03-15T14:23:55.973Z,2.57
2019-03-15T14:26:23.629Z,3.00
2019-03-15T14:28:51.338Z,3.70
2019-03-15T14:31:21.473Z,2.80
2019-03-15T14:33:48.702Z,3.17
2019-03-15T14:36:16.354Z,2.50
2019-03-15T14:38:44.041Z,4.83
2019-03-15T14:41:11.951Z,2.57
2019-03-15T14:43:39.685Z,2.87
2019-03-15T14:46:11.735Z,2.00
2019-03-15T14:48:37.861Z,1.83
2019-03-15T14:51:05.560Z,1.93
2019-03-15T14:53:33.188Z,1.47
2019-03-15T14:56:00.814Z,2.40
2019-03-15T14:58:28.553Z,4.60
2019-03-15T15:00:56.261Z,2.77
2019-03-15T15:03:24.008Z,2.77
2019-03-15T15:05:51.714Z,2.80
2019-03-15T15:08:19.356Z,3.33
2019-03-15T15:10:47.022Z,1.60
2019-03-15T15:13:14.717Z,2.53
2019-03-15T15:15:42.349Z,3.93
2019-03-15T15:18:09.978Z,1.50
2019-03-15T15:20:37.665Z,1.57
2019-03-15T15:23:05.367Z,1.93
2019-03-15T15:25:33.148Z,2.67
2019-03-15T15:28:04.816Z,2.60
2019-03-15T15:30:30.493Z,2.37
2019-03-15T15:32:58.170Z,3.73
2019-03-15T15:35:25.839Z,1.80
2019-03-15T15:37:53.489Z,1.83
2019-03-15T15:40:21.224Z,4.03
2019-03-15T15:42:49.109Z,1.90
2019-03-15T15:45:16.849Z,3.53
2019-03-15T15:47:44.636Z,1.40
2019-03-15T15:50:12.300Z,2.07
2019-03-15T15:52:40.090Z,1.40
2019-03-15T15:55:07.909Z,2.37
2019-03-15T15:57:37.402Z,3.37
2019-03-15T16:00:07.456Z,1.30
2019-03-15T16:02:35.213Z,1.40
2019-03-15T16:05:03.152Z,1.30
2019-03-15T16:07:30.848Z,2.53
2019-03-15T16:09:58.550Z,1.00
2019-03-15T16:12:26.368Z,1.30
2019-03-15T16:14:54.007Z,2.60
2019-03-15T16:17:21.673Z,1.73
2019-03-15T16:19:49.349Z,1.70
2019-03-15T16:22:17.008Z,3.80
2019-03-15T16:24:44.690Z,7.33
2019-03-15T16:27:12.478Z,2.60
2019-03-15T16:29:40.152Z,2.00
2019-03-15T16:32:07.798Z,5.37
2019-03-15T16:34:35.441Z,3.37
2019-03-15T16:37:03.100Z,2.63
2019-03-15T16:39:30.781Z,1.87
2019-03-15T16:41:58.441Z,3.50
2019-03-15T16:44:26.077Z,2.90
2019-03-15T16:46:53.738Z,2.47
2019-03-15T16:49:21.380Z,2.00
2019-03-15T16:51:49.058Z,3.40
2019-03-15T16:54:16.728Z,3.50
2019-03-15T16:56:44.442Z,3.50
2019-03-15T16:59:12.101Z,2.93
2019-03-15T17:01:39.750Z,3.37
2019-03-15T17:04:09.346Z,3.93
2019-03-15T17:06:38.898Z,2.37
2019-03-15T17:09:08.452Z,2.70
2019-03-15T17:11:38.010Z,5.20
2019-03-15T17:14:07.562Z,4.20
2019-03-15T17:16:37.146Z,4.70
2019-03-15T17:19:06.700Z,3.27
2019-03-15T17:21:34.380Z,2.37
2019-03-15T17:24:02.035Z,2.93
2019-03-15T17:26:29.715Z,2.60
2019-03-15T17:28:58.725Z,2.00
2019-03-15T17:31:26.741Z,2.47
2019-03-15T17:33:54.370Z,3.70
2019-03-15T17:36:22.025Z,2.57
2019-03-15T17:38:49.709Z,3.17
2019-03-15T17:41:17.416Z,1.90
2019-03-15T17:43:45.125Z,3.23
2019-03-15T17:46:13.070Z,4.70
2019-03-15T17:48:40.895Z,3.93
2019-03-15T17:51:08.553Z,2.60
2019-03-15T17:53:36.397Z,4.20
2019-03-15T17:56:04.042Z,5.90
2019-03-15T17:58:31.730Z,3.47
2019-03-15T18:00:59.394Z,4.50
2019-03-15T18:03:27.015Z,4.10
2019-03-15T18:05:54.651Z,2.97
2019-03-15T18:08:22.312Z,3.97
2019-03-15T18:10:49.962Z,1.97
2019-03-15T18:13:17.619Z,6.50
2019-03-15T18:15:45.262Z,1.80
2019-03-15T18:18:12.963Z,2.07
2019-03-15T18:20:40.738Z,3.40
2019-03-15T18:23:09.708Z,2.80
2019-03-15T18:25:37.380Z,2.40
2019-03-15T18:28:05.143Z,2.73
2019-03-15T18:30:32.861Z,1.83
2019-03-15T18:33:00.757Z,2.03
2019-03-15T18:35:33.655Z,2.83
2019-03-15T18:37:59.749Z,1.90
2019-03-15T18:40:27.632Z,3.07
2019-03-15T18:42:56.260Z,2.93
2019-03-15T18:45:24.007Z,3.50
2019-03-15T18:47:51.831Z,3.80
2019-03-15T18:50:20.460Z,2.50
2019-03-15T18:52:48.192Z,3.17
2019-03-15T18:55:17.021Z,2.47
2019-03-15T18:57:44.725Z,2.93
2019-03-15T19:00:15.005Z,2.00
2019-03-15T19:02:42.734Z,1.47
2019-03-15T19:05:10.493Z,2.73
2019-03-15T19:07:38.151Z,2.70
2019-03-15T19:10:05.975Z,2.37
2019-03-15T19:12:33.677Z,1.57
2019-03-15T19:15:01.384Z,2.33
2019-03-15T19:17:29.075Z,0.93
2019-03-15T19:19:56.769Z,2.20
2019-03-15T19:22:24.427Z,1.50
2019-03-15T19:24:52.196Z,1.27
2019-03-15T19:27:19.886Z,1.13
2019-03-15T19:29:53.478Z,1.60
2019-03-15T19:32:17.161Z,7.00
2019-03-15T19:34:44.901Z,3.53
2019-03-15T19:37:12.598Z,1.43
2019-03-15T19:39:40.345Z,4.23
2019-03-15T19:42:08.019Z,7.10
2019-03-15T19:44:35.874Z,1.77
2019-03-15T19:47:03.554Z,1.77
2019-03-15T19:49:31.302Z,1.17
2019-03-15T19:51:59.121Z,3.47
2019-03-15T19:54:26.787Z,3.93
2019-03-15T19:56:54.458Z,1.00
2019-03-15T19:59:22.112Z,1.77
2019-03-15T20:01:49.792Z,1.10
2019-03-15T20:04:17.431Z,2.10
2019-03-15T20:06:45.205Z,1.50
2019-03-15T20:09:12.841Z,1.63
2019-03-15T20:11:40.495Z,1.70
2019-03-15T20:14:08.162Z,1.27
2019-03-15T20:16:35.962Z,1.00
2019-03-15T20:19:03.604Z,2.50
2019-03-15T20:21:31.350Z,1.77
2019-03-15T20:23:59.073Z,2.00
2019-03-15T20:26:26.758Z,1.33
2019-03-15T20:28:54.586Z,1.77
2019-03-15T20:31:22.401Z,3.10
2019-03-15T20:33:50.078Z,2.17
2019-03-15T20:36:17.727Z,1.50
2019-03-15T20:38:45.631Z,1.57
2019-03-15T20:41:13.470Z,2.47
2019-03-15T20:43:41.245Z,1.10
2019-03-15T20:46:09.092Z,1.20
2019-03-15T20:48:36.743Z,1.77
2019-03-15T20:51:04.541Z,1.20
2019-03-15T20:53:32.309Z,0.90
2019-03-15T20:55:59.970Z,3.07
2019-03-15T20:58:27.795Z,1.87
2019-03-15T21:00:55.730Z,1.00
2019-03-15T21:03:23.409Z,2.63
2019-03-15T21:05:51.079Z,0.97
2019-03-15T21:08:18.882Z,1.97
2019-03-15T21:10:46.622Z,1.03
2019-03-15T21:13:14.334Z,2.20
2019-03-15T21:15:42.035Z,13.53
2019-03-15T21:18:09.719Z,4.20
2019-03-15T21:20:37.418Z,3.10
2019-03-15T21:23:06.397Z,1.20
2019-03-15T21:25:34.117Z,1.13
2019-03-15T21:28:01.801Z,1.17
2019-03-15T21:30:29.566Z,1.87
2019-03-15T21:32:57.260Z,1.10
2019-03-15T21:35:25.032Z,1.67
2019-03-15T21:37:52.766Z,2.57
2019-03-15T21:40:20.469Z,2.33
2019-03-15T21:42:48.214Z,1.13
2019-03-15T21:45:15.893Z,1.57
2019-03-15T21:47:44.674Z,2.70
2019-03-15T21:50:12.361Z,0.90
2019-03-15T21:52:40.029Z,0.60
2019-03-15T21:55:07.746Z,2.70
2019-03-15T21:57:35.507Z,0.80
2019-03-15T22:00:03.510Z,0.70
2019-03-15T22:02:32.287Z,1.90
2019-03-15T22:04:59.964Z,1.70
2019-03-15T22:07:27.689Z,0.90
2019-03-15T22:09:55.516Z,2.47
2019-03-15T22:12:23.216Z,0.90
2019-03-15T22:14:50.882Z,1.73
2019-03-15T22:17:18.586Z,1.83
2019-03-15T22:19:46.241Z,1.13
2019-03-15T22:22:14.017Z,1.53
2019-03-15T22:24:41.777Z,1.10
2019-03-15T22:27:09.453Z,1.70
2019-03-15T22:29:37.253Z,4.10
2019-03-15T22:32:04.935Z,1.73
2019-03-15T22:34:32.705Z,6.37
2019-03-15T22:37:00.324Z,2.77
2019-03-15T22:39:28.079Z,4.37
2019-03-15T22:41:55.775Z,3.10
2019-03-15T22:44:23.553Z,2.37
2019-03-15T22:46:51.257Z,1.00
2019-03-15T22:49:18.897Z,2.23
2019-03-15T22:51:46.521Z,1.73
2019-03-15T22:54:14.285Z,1.77
2019-03-15T22:56:41.929Z,3.30
2019-03-15T22:59:09.619Z,3.83
2019-03-15T23:01:37.277Z,1.77
2019-03-15T23:04:05.057Z,2.17
2019-03-15T23:06:32.731Z,3.43
2019-03-15T23:09:00.677Z,3.53
2019-03-15T23:11:28.324Z,1.50
2019-03-15T23:13:57.877Z,4.57
2019-03-15T23:16:25.525Z,5.53
2019-03-15T23:18:53.197Z,3.33
2019-03-15T23:21:20.840Z,5.57
2019-03-15T23:23:48.669Z,6.20
2019-03-15T23:26:16.393Z,2.93
2019-03-15T23:28:47.105Z,3.33
2019-03-15T23:31:13.894Z,3.23
2019-03-15T23:33:41.572Z,3.40
2019-03-15T23:36:09.353Z,6.30
2019-03-15T23:38:37.045Z,3.87
2019-03-15T23:41:04.924Z,4.47
2019-03-15T23:43:32.606Z,3.40
2019-03-15T23:46:00.236Z,5.50
2019-03-15T23:48:27.970Z,3.60
2019-03-15T23:50:55.633Z,5.43
2019-03-15T23:53:23.931Z,2.97
2019-03-15T23:55:54.730Z,1.80
2019-03-15T23:58:22.162Z,5.17
